Time;durP1;ratioP1;P1;durP2;ratioP2;P2;SDS_P1;SDS_P2;PMS_P1;PMS_P2;Temp;Humidity;BMP_temperature;BMP_pressure;BME280_temperature;BME280_humidity;BME280_pressure;Samples;Min_cycle;Max_cycle;Signal;HPM_P1;HPM_P2
2022/12/04 00:00:13;;;;;;;31.05;15.15;;;;;;;;;;6165210;23;20017;-84
2022/12/04 00:02:39;;;;;;;30.70;14.70;;;;;;;;;;6163193;23;20001;-81
2022/12/04 00:05:06;;;;;;;32.70;15.65;;;;;;;;;;6161886;23;20061;-83
2022/12/04 00:07:33;;;;;;;36.13;15.48;;;;;;;;;;6163056;23;20002;-83
2022/12/04 00:09:59;;;;;;;31.13;15.30;;;;;;;;;;6163826;23;20006;-84
2022/12/04 00:12:25;;;;;;;30.58;14.55;;;;;;;;;;6163939;23;19997;-81
2022/12/04 00:14:51;;;;;;;34.58;15.68;;;;;;;;;;6162673;23;20434;-82
2022/12/04 00:17:17;;;;;;;29.77;13.77;;;;;;;;;;6162424;23;20014;-82
2022/12/04 00:19:44;;;;;;;32.17;15.10;;;;;;;;;;6161522;23;20006;-84
2022/12/04 00:22:10;;;;;;;32.30;14.60;;;;;;;;;;6162730;23;20012;-84
2022/12/04 00:24:36;;;;;;;30.85;14.45;;;;;;;;;;6161224;23;20374;-82
2022/12/04 00:27:02;;;;;;;31.80;14.95;;;;;;;;;;6163610;23;20081;-82
2022/12/04 00:29:28;;;;;;;35.20;16.45;;;;;;;;;;6161737;23;20026;-84
2022/12/04 00:31:54;;;;;;;34.45;15.20;;;;;;;;;;6160520;23;20013;-81
2022/12/04 00:34:21;;;;;;;33.75;14.93;;;;;;;;;;6159413;23;20509;-83
2022/12/04 00:36:47;;;;;;;32.47;15.68;;;;;;;;;;6159320;23;20068;-79
2022/12/04 00:39:13;;;;;;;36.35;16.70;;;;;;;;;;6160032;23;20006;-80
2022/12/04 00:41:39;;;;;;;31.42;16.27;;;;;;;;;;6162715;23;20010;-80
2022/12/04 00:44:05;;;;;;;30.23;13.82;;;;;;;;;;6161360;23;20013;-80
2022/12/04 00:46:32;;;;;;;34.47;16.50;;;;;;;;;;6162656;23;20001;-81
2022/12/04 00:49:01;;;;;;;30.80;14.55;;;;;;;;;;6162898;23;20006;-81
2022/12/04 00:51:27;;;;;;;32.53;15.02;;;;;;;;;;6162980;23;20014;-80
2022/12/04 00:53:53;;;;;;;34.92;15.13;;;;;;;;;;6163544;23;20413;-80
2022/12/04 00:56:24;;;;;;;30.60;14.75;;;;;;;;;;6165931;23;20009;-79
2022/12/04 00:58:53;;;;;;;;;;;3.80;99.90;;;;;;6164367;23;20005;-83
2022/12/04 01:01:21;;;;;;;34.10;15.27;;;;;;;;;;6164909;23;19900;-81
2022/12/04 01:03:47;;;;;;;31.42;15.15;;;;;;;;;;6165344;23;20001;-82
2022/12/04 01:06:17;;;;;;;29.70;14.75;;;;;;;;;;6162833;23;20032;-82
2022/12/04 01:08:43;;;;;;;38.25;15.65;;;;;;;;;;6162042;23;20002;-80
2022/12/04 01:11:09;;;;;;;32.13;14.77;;;;;;;;;;6163340;23;20433;-83
2022/12/04 01:13:35;;;;;;;33.47;15.38;;;;;;;;;;6164396;23;20010;-80
2022/12/04 01:16:01;;;;;;;32.72;15.38;;;;;;;;;;6163939;23;20063;-81
2022/12/04 01:18:27;;;;;;;30.23;14.57;;;;;;;;;;6161646;23;20036;-82
2022/12/04 01:20:53;;;;;;;31.50;15.10;;;;;;;;;;6159850;23;20009;-80
2022/12/04 01:23:19;;;;;;;30.48;14.18;;;;;;;;;;6161966;23;20010;-81
2022/12/04 01:25:52;;;;;;;28.23;14.20;;;;;;;;;;6162662;23;20028;-81
2022/12/04 01:28:18;;;;;;;33.28;14.68;;;;;;;;;;6166002;23;20001;-82
2022/12/04 01:30:44;;;;;;;31.63;14.80;;;;;;;;;;6163575;23;20009;-81
2022/12/04 01:33:10;;;;;;;35.65;14.52;;;;;;;;;;6160282;23;20020;-81
2022/12/04 01:35:37;;;;;;;31.00;15.23;;;;;;;;;;6161003;23;20073;-83
2022/12/04 01:38:03;;;;;;;33.00;14.57;;;;;;;;;;6162781;23;20014;-81
2022/12/04 01:40:58;;;;;;;31.08;13.98;;;;;;;;;;6163569;23;20010;-79
2022/12/04 01:43:24;;;;;;;31.50;14.63;;;;;;;;;;6164008;23;20005;-84
2022/12/04 01:45:59;;;;;;;31.13;14.88;;;;;;;;;;6163057;23;20065;-81
2022/12/04 01:48:33;;;;;;;32.00;15.60;;;;;;;;;;6163907;23;20329;-81
2022/12/04 01:51:02;;;;;;;33.90;15.05;;;;;;;;;;6163500;23;20476;-83
2022/12/04 01:53:29;;;;;;;32.15;14.98;;;;;;;;;;6166916;23;20005;-82
2022/12/04 01:55:55;;;;;;;33.90;16.02;;;;;;;;;;6164554;23;20009;-79
2022/12/04 01:58:24;;;;;;;36.13;16.55;;;;;;;;;;6162008;23;20009;-80
2022/12/04 02:00:52;;;;;;;30.02;14.40;;;;;;;;;;6164490;23;20010;-81
2022/12/04 02:03:18;;;;;;;33.92;15.00;;;;;;;;;;6162375;23;20005;-82
2022/12/04 02:05:44;;;;;;;33.67;14.75;;;;;;;;;;6161900;23;20015;-79
2022/12/04 02:08:10;;;;;;;29.85;14.50;;;;;;;;;;6162179;23;19994;-81
2022/12/04 02:11:00;;;;;;;28.00;13.38;;;;;;;;;;6164139;23;20029;-80
2022/12/04 02:13:50;;;;;;;28.48;13.10;;;3.80;99.90;;;;;;6162114;23;20036;-81
2022/12/04 02:16:29;;;;;;;29.10;13.63;;;;;;;;;;6163378;23;20009;-81
2022/12/04 02:19:19;;;;;;;34.22;15.35;;;;;;;;;;6162530;23;20029;-81
2022/12/04 02:21:50;;;;;;;29.98;14.48;;;;;;;;;;6162834;23;20105;-81
2022/12/04 02:24:36;;;;;;;32.15;13.82;;;;;;;;;;6162068;23;20001;-81
2022/12/04 02:27:07;;;;;;;28.35;13.93;;;;;;;;;;6161127;23;20001;-81
2022/12/04 02:29:44;;;;;;;30.77;14.18;;;;;;;;;;6163124;23;20001;-82
2022/12/04 02:32:29;;;;;;;28.00;13.88;;;;;;;;;;6162368;23;20005;-81
2022/12/04 02:35:28;;;;;;;28.27;14.25;;;;;;;;;;6164828;23;20080;-81
2022/12/04 02:38:02;;;;;;;26.85;13.73;;;;;;;;;;6164032;23;20023;-81
2022/12/04 02:40:37;;;;;;;26.63;13.10;;;;;;;;;;6163780;23;20032;-81
2022/12/04 02:43:14;;;;;;;26.15;13.07;;;;;;;;;;6161516;23;20013;-81
2022/12/04 02:46:10;;;;;;;28.10;13.02;;;;;;;;;;6161351;23;20001;-81
2022/12/04 02:48:40;;;;;;;29.48;13.38;;;;;;;;;;6160939;23;20008;-81
2022/12/04 02:51:10;;;;;;;28.50;14.30;;;;;;;;;;6163360;23;20036;-80
2022/12/04 02:53:45;;;;;;;27.10;14.00;;;;;;;;;;6165958;23;20009;-81
2022/12/04 02:56:17;;;;;;;31.85;14.82;;;;;;;;;;6169615;23;20005;-80
2022/12/04 02:58:49;;;;;;;29.92;15.02;;;;;;;;;;6181765;23;20014;-81
2022/12/04 03:01:19;;;;;;;30.35;14.30;;;;;;;;;;6176519;23;20421;-81
2022/12/04 03:04:05;;;;;;;28.95;13.82;;;;;;;;;;6166441;23;20010;-78
2022/12/04 03:06:33;;;;;;;27.60;13.38;;;;;;;;;;6166568;23;19997;-80
2022/12/04 03:09:14;;;;;;;26.20;12.52;;;;;;;;;;6169064;23;20026;-80
2022/12/04 03:11:42;;;;;;;25.10;11.32;;;;;;;;;;6145513;23;20005;-84
2022/12/04 03:14:11;;;;;;;24.08;11.95;;;;;;;;;;6149690;23;20056;-81
2022/12/04 03:16:39;;;;;;;27.38;13.02;;;;;;;;;;6168523;23;20048;-81
2022/12/04 03:19:13;;;;;;;25.48;12.52;;;;;;;;;;6167809;23;20010;-79
2022/12/04 03:21:43;;;;;;;26.20;13.15;;;;;;;;;;6166971;23;20378;-81
2022/12/04 03:24:20;;;;;;;26.90;13.10;;;;;;;;;;6167311;23;20052;-83
2022/12/04 03:26:49;;;;;;;22.92;10.93;;;;;;;;;;6168021;23;20441;-85
2022/12/04 03:29:32;;;;;;;24.55;11.82;;;;;;;;;;6166477;23;20005;-81
2022/12/04 03:32:01;;;;;;;25.10;12.35;;;;;;;;;;6164952;23;20009;-81
2022/12/04 03:34:34;;;;;;;25.65;12.75;;;;;;;;;;6164619;23;20012;-80
2022/12/04 03:37:07;;;;;;;27.73;13.65;;;;;;;;;;6165889;23;20013;-82
2022/12/04 03:39:36;;;;;;;24.60;12.98;;;;;;;;;;6166045;23;20036;-83
2022/12/04 03:42:23;;;;;;;25.75;13.20;;;;;;;;;;6167932;23;20088;-80
2022/12/04 03:44:56;;;;;;;27.17;13.95;;;;;;;;;;6192838;23;20013;-81
2022/12/04 03:48:03;;;;;;;27.50;13.73;;;;;;;;;;6169904;23;20002;-81
2022/12/04 03:50:30;;;;;;;25.42;13.50;;;;;;;;;;6079417;23;20003;-83
2022/12/04 03:52:59;;;;;;;25.17;13.15;;;;;;;;;;6079170;23;20011;-81
2022/12/04 03:55:39;;;;;;;29.00;13.25;;;;;;;;;;6121158;23;20051;-79
2022/12/04 03:58:10;;;;;;;24.67;13.10;;;;;;;;;;6164428;23;20025;-79
2022/12/04 04:00:42;;;;;;;26.42;13.63;;;;;;;;;;6165209;23;20010;-81
2022/12/04 04:03:24;;;;;;;27.73;13.68;;;;;;;;;;6166438;23;20009;-79
2022/12/04 04:05:53;;;;;;;25.45;12.85;;;;;;;;;;6166848;23;19998;-81
2022/12/04 04:08:26;;;;;;;26.67;13.30;;;;;;;;;;6162852;23;19998;-82
2022/12/04 04:10:55;;;;;;;24.50;13.27;;;;;;;;;;6162221;23;20438;-81
2022/12/04 04:24:30;;;;;;;21.60;12.18;;;;;;;;;;6165840;23;20016;-83
2022/12/04 04:26:58;;;;;;;24.50;13.68;;;;;;;;;;6164193;23;20009;-83
2022/12/04 04:29:24;;;;;;;25.63;13.32;;;;;;;;;;6164126;23;20085;-82
2022/12/04 04:31:58;;;;;;;24.25;12.45;;;;;;;;;;6166146;23;20006;-84
2022/12/04 04:35:01;;;;;;;26.77;14.20;;;3.50;99.90;;;;;;6167028;23;20061;-83
2022/12/04 04:37:34;;;;;;;21.65;11.88;;;;;;;;;;6170684;23;20013;-84
2022/12/04 04:40:06;;;;;;;24.95;12.35;;;;;;;;;;6174232;23;20001;-86
2022/12/04 04:42:35;;;;;;;24.45;13.18;;;;;;;;;;6176995;23;19990;-86
2022/12/04 04:45:22;;;;;;;26.08;13.50;;;;;;;;;;6178082;23;20029;-87
2022/12/04 04:47:51;;;;;;;22.30;11.80;;;;;;;;;;6177956;23;19993;-83
2022/12/04 04:50:18;;;;;;;26.02;13.73;;;;;;;;;;6182855;23;20033;-89
2022/12/04 04:52:49;;;;;;;21.48;11.85;;;;;;;;;;6181216;23;20021;-87
2022/12/04 04:55:16;;;;;;;;;;;3.60;99.90;;;;;;6177640;23;20001;-87
2022/12/04 04:57:42;;;;;;;21.02;11.23;;;;;;;;;;6178220;23;19909;-86
2022/12/04 05:00:13;;;;;;;22.60;12.23;;;;;;;;;;6178864;23;20021;-85
2022/12/04 05:02:47;;;;;;;;;;;3.50;99.90;;;;;;6179832;23;20020;-88
2022/12/04 05:05:21;;;;;;;21.40;11.30;;;;;;;;;;6178707;23;19930;-84
2022/12/04 05:07:47;;;;;;;23.13;12.38;;;;;;;;;;6186962;23;20021;-83
2022/12/04 08:38:45;;;;;;;29.35;13.52;;;;;;;;;;6220398;22;20358;-80
2022/12/04 08:41:16;;;;;;;27.55;12.38;;;3.10;99.90;;;;;;6223357;23;20366;-80
2022/12/04 08:43:47;;;;;;;26.48;13.40;;;;;;;;;;6196217;23;20015;-83
2022/12/04 08:46:19;;;;;;;25.10;12.97;;;3.10;99.90;;;;;;6199073;23;20059;-81
2022/12/04 08:49:08;;;;;;;27.50;13.50;;;3.20;99.90;;;;;;6188190;23;20235;-84
2022/12/04 08:51:56;;;;;;;26.75;13.07;;;3.20;99.90;;;;;;6203790;23;20013;-80
2022/12/04 08:54:26;;;;;;;28.30;13.70;;;3.20;99.90;;;;;;6224682;23;20449;-80
2022/12/04 08:56:54;;;;;;;24.88;13.50;;;;;;;;;;6224839;23;20092;-79
2022/12/04 08:59:27;;;;;;;30.00;14.68;;;3.20;99.90;;;;;;6194944;23;20007;-81
2022/12/04 09:01:57;;;;;;;23.95;12.43;;;;;;;;;;6193686;23;20005;-81
2022/12/04 09:04:28;;;;;;;24.58;11.75;;;3.30;99.90;;;;;;6195894;23;19996;-84
2022/12/04 09:06:58;;;;;;;25.60;12.57;;;3.10;99.90;;;;;;6197121;23;20015;-81
2022/12/04 09:09:28;;;;;;;29.52;11.13;;;;;;;;;;6169311;23;20095;-81
2022/12/04 09:12:00;;;;;;;20.02;10.07;;;;;;;;;;6221031;23;20276;-80
2022/12/04 09:14:27;;;;;;;22.20;10.98;;;;;;;;;;6222339;23;20032;-81
2022/12/04 09:16:57;;;;;;;20.67;10.95;;;;;;;;;;6221601;23;20055;-82
2022/12/04 09:19:26;;;;;;;22.77;11.43;;;3.00;99.90;;;;;;6194375;23;20431;-81
2022/12/04 09:21:54;;;;;;;19.85;10.05;;;2.90;99.90;;;;;;6194247;23;20335;-79
2022/12/04 09:24:21;;;;;;;21.55;10.45;;;;;;;;;;6196771;23;20035;-79
2022/12/04 09:26:48;;;;;;;21.75;10.52;;;;;;;;;;6205879;23;20008;-80
2022/12/04 09:29:19;;;;;;;18.77;9.88;;;2.90;99.90;;;;;;6223195;23;20013;-83
2022/12/04 09:31:49;;;;;;;21.67;10.85;;;3.00;99.90;;;;;;6196817;23;20088;-83
2022/12/04 09:34:18;;;;;;;24.15;11.82;;;;;;;;;;6222241;23;20013;-82
2022/12/04 09:36:49;;;;;;;20.25;9.75;;;2.90;99.90;;;;;;6222795;23;20056;-83
2022/12/04 09:39:17;;;;;;;22.10;11.10;;;;;;;;;;6170975;23;20017;-82
2022/12/04 09:41:53;;;;;;;21.05;10.57;;;;;;;;;;6197271;23;20013;-81
2022/12/04 09:44:30;;;;;;;19.88;10.77;;;3.10;99.90;;;;;;6194442;23;20012;-85
2022/12/04 09:47:23;;;;;;;21.65;11.43;;;3.20;99.90;;;;;;6194244;23;20001;-82
2022/12/04 09:49:54;;;;;;;19.25;10.45;;;;;;;;;;6220872;23;20031;-81
2022/12/04 09:52:25;;;;;;;19.88;10.18;;;;;;;;;;6194646;23;20028;-81
2022/12/04 09:54:57;;;;;;;21.30;10.77;;;3.30;99.90;;;;;;6194147;23;20192;-82
2022/12/04 09:57:32;;;;;;;22.30;11.55;;;;;;;;;;6195158;23;20024;-83
2022/12/04 10:00:00;;;;;;;21.15;11.20;;;;;;;;;;6194604;23;20028;-82
2022/12/04 10:02:40;;;;;;;21.88;11.30;;;3.30;99.90;;;;;;6192728;23;20008;-82
2022/12/04 10:05:14;;;;;;;22.00;11.10;;;;;;;;;;6219878;23;20008;-79
2022/12/04 10:08:05;;;;;;;22.10;11.43;;;3.40;99.90;;;;;;6192205;23;20005;-80
2022/12/04 10:10:34;;;;;;;21.00;11.13;;;;;;;;;;6220233;23;20005;-79
2022/12/04 10:13:01;;;;;;;21.20;10.98;;;;;;;;;;6187539;23;20009;-81
2022/12/04 10:16:21;;;;;;;21.55;10.95;;;3.50;99.90;;;;;;6217711;23;20027;-78
2022/12/04 10:18:57;;;;;;;23.80;11.32;;;;;;;;;;6126229;23;20012;-81
2022/12/04 10:21:34;;;;;;;22.98;11.55;;;;;;;;;;6183456;23;20011;-78
2022/12/04 10:24:01;;;;;;;23.33;11.55;;;;;;;;;;6188197;23;20004;-80
2022/12/04 10:29:12;;;;;;;20.50;10.75;;;;;;;;;;6191958;22;20017;-82
2022/12/04 10:32:04;;;;;;;21.92;11.50;;;;;;;;;;6229743;23;19985;-80
2022/12/04 10:34:52;;;;;;;24.33;11.18;;;;;;;;;;6231072;23;20008;-84
2022/12/04 10:37:34;;;;;;;24.05;11.30;;;3.30;99.90;;;;;;6233006;23;19984;-80
2022/12/04 10:40:22;;;;;;;22.08;11.65;;;;;;;;;;6228502;23;20000;-81
2022/12/04 10:43:12;;;;;;;22.15;11.85;;;3.40;99.90;;;;;;6230758;23;20016;-80
2022/12/04 10:46:20;;;;;;;23.02;11.43;;;3.50;99.90;;;;;;6226003;23;20015;-81
2022/12/04 10:48:54;;;;;;;22.67;11.57;;;;;;;;;;6223657;23;20339;-82
2022/12/04 10:51:24;;;;;;;23.25;11.65;;;;;;;;;;6196331;23;19997;-82
2022/12/04 10:53:55;;;;;;;21.88;10.88;;;;;;;;;;6222194;23;20009;-81
2022/12/04 10:57:04;;;;;;;22.25;12.13;;;3.60;99.90;;;;;;6220912;23;20015;-82
2022/12/04 10:59:53;;;;;;;20.25;10.32;;;;;;;;;;6172018;23;20100;-81
2022/12/04 11:02:42;;;;;;;21.48;10.95;;;;;;;;;;6221600;23;20083;-81
2022/12/04 11:05:29;;;;;;;18.77;10.00;;;;;;;;;;6195593;23;20007;-82
2022/12/04 11:08:39;;;;;;;19.45;10.07;;;;;;;;;;6217614;23;20451;-81
2022/12/04 11:11:30;;;;;;;19.40;9.95;;;;;;;;;;6224884;23;20004;-81
2022/12/04 11:14:32;;;;;;;20.15;10.15;;;;;;;;;;6211868;23;20007;-83
2022/12/04 11:17:26;;;;;;;22.13;10.63;;;;;;;;;;6238299;23;20031;-83
2022/12/04 12:11:32;;;;;;;20.90;10.73;;;;;;;;;;6179781;22;20055;-83
2022/12/04 12:14:20;;;;;;;16.38;8.88;;;;;;;;;;6235011;23;20087;-83
2022/12/04 12:16:50;;;;;;;20.63;10.00;;;;;;;;;;6240757;23;20001;-82
2022/12/04 12:19:41;;;;;;;20.17;9.70;;;3.50;99.90;;;;;;6215211;23;20004;-83
2022/12/04 12:22:17;;;;;;;21.52;9.85;;;;;;;;;;6207288;23;20008;-82
2022/12/04 12:24:56;;;;;;;20.55;10.32;;;;;;;;;;6183121;23;20007;-82
2022/12/04 12:30:49;;;;;;;19.77;10.40;;;;;;;;;;6155986;23;20044;-81
2022/12/04 12:33:21;;;;;;;22.77;9.73;;;;;;;;;;6170769;23;20005;-83
2022/12/04 12:36:31;;;;;;;17.35;9.10;;;3.70;99.90;;;;;;6169651;23;20012;-82
2022/12/04 12:39:30;;;;;;;;;;;;;;;;;;;;;
2022/12/04 12:42:09;;;;;;;18.77;10.38;;;;;;;;;;6197630;23;20012;-83
2022/12/04 12:44:58;;;;;;;22.23;11.07;;;;;;;;;;6181938;23;19998;-81
2022/12/04 12:47:32;;;;;;;20.25;9.65;;;;;;;;;;6184899;23;20037;-85
2022/12/04 12:50:15;;;;;;;20.15;9.85;;;;;;;;;;6211039;23;20012;-83
2022/12/04 12:52:46;;;;;;;20.63;10.18;;;;;;;;;;6184235;23;20001;-81
2022/12/04 12:55:27;;;;;;;18.30;9.85;;;;;;;;;;6208689;23;19997;-83
2022/12/04 12:58:17;;;;;;;18.42;9.88;;;;;;;;;;6208358;23;20020;-83
2022/12/04 13:00:49;;;;;;;18.55;9.98;;;;;;;;;;6179898;23;20009;-81
2022/12/04 13:03:27;;;;;;;20.60;9.98;;;;;;;;;;6181293;23;20036;-80
2022/12/04 13:06:14;;;;;;;20.45;10.40;;;;;;;;;;6206679;23;20001;-83
2022/12/04 13:08:53;;;;;;;22.63;10.68;;;;;;;;;;6172997;23;20029;-83
2022/12/04 13:11:21;;;;;;;19.17;10.45;;;;;;;;;;6182049;23;20011;-82
2022/12/04 13:13:48;;;;;;;20.77;10.50;;;;;;;;;;6208547;23;20005;-82
2022/12/04 13:16:17;;;;;;;23.25;11.10;;;;;;;;;;6183097;23;20029;-85
2022/12/04 13:18:45;;;;;;;20.73;10.05;;;;;;;;;;6182030;23;20012;-84
2022/12/04 13:21:23;;;;;;;22.83;11.38;;;;;;;;;;6207995;23;20008;-83
2022/12/04 13:23:49;;;;;;;21.85;10.38;;;;;;;;;;6184529;23;20012;-82
2022/12/04 13:26:16;;;;;;;23.02;10.63;;;;;;;;;;6209121;23;19998;-82
2022/12/04 13:28:53;;;;;;;23.00;11.27;;;;;;;;;;6207775;23;20005;-80
2022/12/04 13:31:23;;;;;;;20.85;10.27;;;;;;;;;;6208306;23;19996;-82
2022/12/04 13:33:59;;;;;;;19.95;9.80;;;;;;;;;;6182843;23;19993;-82
2022/12/04 13:36:37;;;;;;;20.05;10.35;;;;;;;;;;6166050;23;20036;-81
2022/12/04 13:39:25;;;;;;;22.25;10.93;;;;;;;;;;6190159;23;20008;-80
2022/12/04 13:42:02;;;;;;;21.75;10.80;;;;;;;;;;6164905;23;20043;-82
2022/12/04 13:44:29;;;;;;;24.20;12.02;;;;;;;;;;6190159;23;20005;-81
2022/12/04 13:47:00;;;;;;;23.73;11.32;;;;;;;;;;6164193;23;20001;-80
2022/12/04 13:49:33;;;;;;;22.98;11.48;;;;;;;;;;6163888;23;20001;-80
2022/12/04 13:52:01;;;;;;;21.25;11.30;;;;;;;;;;6164997;23;20005;-80
2022/12/04 13:54:35;;;;;;;23.17;11.07;;;;;;;;;;6190001;23;20027;-81
2022/12/04 13:57:21;;;;;;;20.33;10.57;;;;;;;;;;6161443;23;20020;-80
2022/12/04 13:59:49;;;;;;;21.55;10.68;;;;;;;;;;6187599;23;20028;-80
2022/12/04 14:02:23;;;;;;;23.17;11.38;;;;;;;;;;6187574;23;20136;-81
2022/12/04 14:05:03;;;;;;;19.73;9.90;;;;;;;;;;6160961;23;20005;-80
2022/12/04 14:07:32;;;;;;;21.98;10.88;;;;;;;;;;6163593;23;20075;-81
2022/12/04 14:10:02;;;;;;;18.73;10.05;;;;;;;;;;6189470;23;20011;-81
2022/12/04 14:12:31;;;;;;;23.45;10.63;;;;;;;;;;6163783;23;20084;-80
2022/12/04 14:14:59;;;;;;;23.48;11.50;;;;;;;;;;6160809;23;20008;-80
2022/12/04 14:17:38;;;;;;;20.63;10.60;;;3.70;99.90;;;;;;6160851;23;20005;-80
2022/12/04 14:20:26;;;;;;;20.23;10.43;;;3.70;99.90;;;;;;6187320;23;20001;-80
2022/12/04 14:22:53;;;;;;;20.52;10.75;;;;;;;;;;6187432;23;20005;-80
2022/12/04 14:25:35;;;;;;;21.15;11.15;;;3.60;99.90;;;;;;6161347;23;20011;-82
2022/12/04 14:28:22;;;;;;;21.40;10.60;;;3.60;99.90;;;;;;6161338;23;20076;-81
2022/12/04 14:31:08;;;;;;;20.60;11.30;;;3.60;99.90;;;;;;6161321;23;20055;-80
2022/12/04 14:34:02;;;;;;;22.08;10.70;;;3.50;99.90;;;;;;6176336;23;20004;-83
2022/12/04 14:36:36;;;;;;;21.40;10.35;;;3.60;99.90;;;;;;6166156;23;19989;-81
2022/12/04 14:39:06;;;;;;;22.65;10.93;;;;;;;;;;6179812;23;19993;-80
2022/12/04 14:41:32;;;;;;;22.73;10.63;;;;;;;;;;6177937;23;19989;-80
2022/12/04 14:44:01;;;;;;;22.77;11.30;;;;;;;;;;6178497;23;20005;-79
2022/12/04 14:46:31;;;;;;;22.85;10.98;;;;;;;;;;6174086;23;20059;-80
2022/12/04 14:49:00;;;;;;;22.27;10.20;;;;;;;;;;6197751;23;20005;-80
2022/12/04 14:51:52;;;;;;;21.75;11.40;;;3.90;99.90;;;;;;6174334;23;20009;-80
2022/12/04 14:54:32;;;;;;;23.13;10.90;;;3.90;99.90;;;;;;6199433;23;20021;-79
2022/12/04 14:57:28;;;;;;;23.58;11.88;;;3.90;99.90;;;;;;6174118;23;20008;-79
2022/12/04 14:59:55;;;;;;;24.92;11.90;;;4.00;99.90;;;;;;6190828;23;20001;-79
2022/12/04 15:02:38;;;;;;;25.13;11.98;;;4.00;99.90;;;;;;6198125;23;20036;-79
2022/12/04 15:05:10;;;;;;;21.98;10.40;;;4.00;99.90;;;;;;6171417;23;20001;-78
2022/12/04 15:07:49;;;;;;;25.23;11.48;;;4.00;99.90;;;;;;6194815;23;20005;-78
2022/12/04 15:13:11;;;;;;;24.65;11.18;;;4.10;99.90;;;;;;6196540;23;20051;-78
2022/12/04 15:15:45;;;;;;;26.05;11.57;;;4.10;99.90;;;;;;6172935;23;19989;-81
2022/12/04 15:18:15;;;;;;;28.08;12.45;;;4.10;99.90;;;;;;6171895;23;20079;-80
2022/12/04 15:20:43;;;;;;;22.63;11.45;;;;;;;;;;6198861;23;20009;-78
2022/12/04 15:23:15;;;;;;;26.33;13.00;;;4.00;99.90;;;;;;6169758;23;20012;-80
2022/12/04 15:25:45;;;;;;;24.80;12.02;;;;;;;;;;6200681;23;20005;-80
2022/12/04 15:28:18;;;;;;;26.75;11.80;;;;;;;;;;6199349;23;20027;-80
2022/12/04 15:30:47;;;;;;;25.48;11.98;;;4.00;99.90;;;;;;6173501;23;20036;-80
2022/12/04 15:33:27;;;;;;;25.48;11.32;;;4.00;99.90;;;;;;6174430;23;20009;-80
2022/12/04 15:36:08;;;;;;;27.88;12.00;;;3.90;99.90;;;;;;6203679;23;19989;-79
2022/12/04 15:38:36;;;;;;;25.77;12.25;;;;;;;;;;6181456;23;20005;-80
2022/12/04 15:41:02;;;;;;;27.25;12.43;;;;;;;;;;6180346;23;20001;-80
2022/12/04 15:43:41;;;;;;;25.15;11.90;;;3.90;99.90;;;;;;6181424;23;20036;-80
2022/12/04 15:46:21;;;;;;;22.27;11.38;;;;;;;;;;6177150;23;20051;-80
2022/12/04 15:48:48;;;;;;;27.27;12.20;;;;;;;;;;6199501;23;20005;-79
2022/12/04 15:51:18;;;;;;;26.40;10.85;;;3.90;99.90;;;;;;6177419;23;20008;-80
2022/12/04 15:53:47;;;;;;;24.35;11.52;;;3.80;99.90;;;;;;6198289;23;20012;-79
2022/12/04 15:56:20;;;;;;;24.70;11.07;;;3.90;99.90;;;;;;6170162;23;20004;-81
2022/12/04 15:59:01;;;;;;;25.98;11.95;;;;;;;;;;6193773;23;20067;-81
2022/12/04 16:01:39;;;;;;;21.85;10.73;;;3.80;99.90;;;;;;6169135;23;20008;-79
2022/12/04 16:04:21;;;;;;;22.95;10.63;;;3.80;99.90;;;;;;6166265;23;20375;-81
2022/12/04 16:07:18;;;;;;;26.02;11.23;;;;;;;;;;6203736;23;20024;-81
2022/12/04 16:10:00;;;;;;;27.83;11.88;;;3.80;99.90;;;;;;6175681;23;20007;-81
2022/12/04 16:16:00;;;;;;;25.45;11.77;;;3.80;99.90;;;;;;6200340;23;20067;-80
2022/12/04 16:18:38;;;;;;;25.15;11.50;;;3.80;99.90;;;;;;6175143;23;20020;-81
2022/12/04 16:21:12;;;;;;;24.23;11.10;;;3.70;99.90;;;;;;6199674;23;20016;-81
2022/12/04 16:23:42;;;;;;;23.95;11.23;;;;;;;;;;6198013;23;20317;-81
2022/12/04 16:26:57;;;;;;;27.60;11.60;;;3.80;99.90;;;;;;6168615;23;20024;-84
2022/12/04 16:29:44;;;;;;;24.52;11.68;;;;;;;;;;6192189;23;20009;-80
